MS65 weather

Delta Flying Service Inc Airport
Walls, Mississippi, United States

Public forecast

Using degrees Fahrenheit for public forecast. Weather courtesy of forecast.io.

Closest aviation weather report (METAR) to Delta Flying Service Inc Airport

Closest report is West Memphis Municipal Airport, 11.2 nm (20.8 km) N. Retrieved 2020/02/23 16:53 UTC (12 minutes ago):

KAWM 231653Z AUTO 18009KT 10SM OVC060 10/03 A3019 RMK AO2 SLP225 T01000033

Closest aviation forecast (TAF) to Delta Flying Service Inc Airport

Closest forecast is Memphis International Airport, 12.3 nm (22.8 km) ENE. Retrieved 2020/02/23 12:24 UTC (5 hours ago):

TAF KMEM 231122Z 2312/2418 19005KT P6SM BKN090 FM232000 19008KT P6SM VCSH OVC060 FM240100 16007KT P6SM -SHRA SCT025 OVC045 FM240500 16011KT 5SM -SHRA OVC018 FM240900 17011G19KT 5SM -SHRA OVC012 WS020/20050KT FM241400 18014G18KT 4SM -SHRA OVC008 WS020/20040KT